Time;durP1;ratioP1;P1;durP2;ratioP2;P2;SDS_P1;SDS_P2;PMS_P1;PMS_P2;Temp;Humidity;BMP_temperature;BMP_pressure;BME280_temperature;BME280_humidity;BME280_pressure;Samples;Min_cycle;Max_cycle;Signal;HPM_P1;HPM_P2
2022/03/15 00:02:00;;;;;;;8.30;2.90;;;5.40;99.90;;;;;;5138954;27;36481;-57
2022/03/15 00:04:27;;;;;;;8.02;2.80;;;5.40;99.90;;;;;;5139185;27;37888;-57
2022/03/15 00:06:58;;;;;;;6.63;3.10;;;5.30;99.90;;;;;;5139905;27;36349;-56
2022/03/15 00:09:26;;;;;;;7.72;2.83;;;5.40;99.90;;;;;;5139998;27;37403;-56
2022/03/15 00:11:54;;;;;;;7.60;3.17;;;5.40;99.90;;;;;;5139906;27;37939;-57
2022/03/15 00:14:22;;;;;;;8.18;3.22;;;5.40;99.90;;;;;;5139168;27;37460;-57
2022/03/15 00:16:49;;;;;;;10.05;3.08;;;5.30;99.90;;;;;;5138660;27;37566;-56
2022/03/15 00:19:18;;;;;;;5.22;2.38;;;5.40;99.90;;;;;;5139508;27;36799;-56
2022/03/15 00:21:46;;;;;;;5.95;2.40;;;5.30;99.90;;;;;;5138403;27;37203;-56
2022/03/15 00:24:13;;;;;;;8.32;3.03;;;5.30;99.90;;;;;;5138188;27;38483;-56
2022/03/15 00:26:40;;;;;;;8.15;3.05;;;5.30;99.90;;;;;;5139033;27;36578;-56
2022/03/15 00:29:08;;;;;;;9.65;3.47;;;5.30;99.90;;;;;;5138971;27;36794;-57
2022/03/15 00:31:35;;;;;;;10.75;3.88;;;5.20;99.90;;;;;;5139001;27;36479;-56
2022/03/15 00:34:03;;;;;;;10.45;3.90;;;5.30;99.90;;;;;;5136349;27;38747;-57
2022/03/15 00:36:34;;;;;;;9.68;3.42;;;5.30;99.90;;;;;;5139043;27;37239;-56
2022/03/15 00:39:01;;;;;;;9.95;3.72;;;5.30;99.90;;;;;;5138809;27;39536;-57
2022/03/15 00:41:29;;;;;;;10.15;4.22;;;5.30;99.90;;;;;;5137912;27;36564;-57
2022/03/15 00:43:56;;;;;;;8.70;3.20;;;5.30;99.90;;;;;;5137507;27;36226;-57
2022/03/15 00:46:23;;;;;;;6.95;3.22;;;5.30;99.90;;;;;;5136906;27;37668;-56
2022/03/15 00:48:51;;;;;;;10.27;3.25;;;5.30;99.90;;;;;;5137864;27;37276;-56
2022/03/15 00:51:18;;;;;;;7.93;2.88;;;5.20;99.90;;;;;;5138191;27;37563;-56
2022/03/15 00:53:47;;;;;;;8.70;3.30;;;5.20;99.90;;;;;;5137492;27;37688;-57
2022/03/15 00:56:14;;;;;;;9.63;3.03;;;5.10;99.90;;;;;;5138616;27;37708;-57
2022/03/15 00:58:41;;;;;;;6.75;3.35;;;5.00;99.80;;;;;;5139699;27;36166;-57
2022/03/15 01:01:09;;;;;;;8.98;2.60;;;5.00;99.80;;;;;;5137776;27;36485;-58
2022/03/15 01:03:37;;;;;;;7.30;2.65;;;4.90;99.90;;;;;;5138529;27;37630;-56
2022/03/15 01:06:04;;;;;;;10.73;4.07;;;4.90;99.70;;;;;;5139241;27;37385;-56
2022/03/15 01:08:33;;;;;;;10.65;3.55;;;4.80;99.80;;;;;;5138445;27;20104;-56
2022/03/15 01:11:05;;;;;;;11.48;3.47;;;4.80;99.90;;;;;;5136884;27;37860;-56
2022/03/15 01:13:32;;;;;;;8.55;3.70;;;4.90;99.90;;;;;;5137739;27;36352;-57
2022/03/15 01:15:59;;;;;;;6.05;3.10;;;4.90;99.90;;;;;;5136415;27;37788;-57
2022/03/15 01:18:27;;;;;;;7.45;3.10;;;4.90;99.90;;;;;;5137024;27;38573;-56
2022/03/15 01:20:54;;;;;;;7.03;3.25;;;4.90;99.90;;;;;;5135754;27;36929;-57
2022/03/15 01:23:22;;;;;;;8.93;3.33;;;4.90;99.90;;;;;;5136256;27;38370;-56
2022/03/15 01:25:49;;;;;;;9.15;3.33;;;5.00;99.90;;;;;;5136736;27;37266;-56
2022/03/15 01:28:18;;;;;;;9.45;3.13;;;5.10;99.90;;;;;;5137286;27;36918;-56
2022/03/15 01:30:45;;;;;;;6.60;3.38;;;5.00;99.90;;;;;;5138438;27;36200;-57
2022/03/15 01:33:12;;;;;;;7.88;3.50;;;5.00;99.90;;;;;;5136900;27;37721;-56
2022/03/15 01:35:40;;;;;;;9.80;3.40;;;4.90;99.90;;;;;;5137910;27;37519;-56
2022/03/15 01:38:07;;;;;;;22.27;3.33;;;4.90;99.90;;;;;;5138150;27;39955;-57
2022/03/15 01:40:35;;;;;;;28.42;3.55;;;4.90;99.90;;;;;;5136238;27;38029;-57
2022/03/15 01:43:03;;;;;;;12.00;2.72;;;4.80;99.90;;;;;;5136632;27;37815;-57
2022/03/15 01:45:34;;;;;;;13.82;4.75;;;4.70;99.90;;;;;;5137894;27;36607;-57
2022/03/15 01:48:01;;;;;;;30.15;4.78;;;4.60;99.90;;;;;;5136287;27;37193;-56
2022/03/15 01:50:29;;;;;;;20.77;4.22;;;4.50;99.60;;;;;;5136417;27;37283;-56
2022/03/15 01:52:56;;;;;;;42.17;4.35;;;4.20;99.50;;;;;;5135517;27;38128;-56
2022/03/15 01:55:24;;;;;;;31.90;4.55;;;4.30;99.50;;;;;;5136080;27;36338;-57
2022/03/15 01:57:51;;;;;;;11.57;3.22;;;4.30;99.90;;;;;;5136427;27;37503;-56
2022/03/15 02:00:20;;;;;;;13.90;3.60;;;4.20;99.90;;;;;;5138092;27;36500;-56
2022/03/15 02:02:49;;;;;;;24.77;3.47;;;4.20;99.90;;;;;;5136077;27;37779;-56
2022/03/15 02:05:16;;;;;;;22.65;3.70;;;4.20;99.90;;;;;;5136782;27;39957;-57
2022/03/15 02:07:43;;;;;;;17.92;3.80;;;4.20;99.90;;;;;;5136783;27;36320;-55
2022/03/15 02:10:11;;;;;;;12.82;3.20;;;4.20;99.90;;;;;;5136725;27;36580;-56
2022/03/15 02:12:38;;;;;;;6.47;3.05;;;4.20;99.90;;;;;;5137192;27;37729;-56
2022/03/15 02:15:08;;;;;;;5.72;2.88;;;4.10;99.90;;;;;;5136221;27;36423;-56
2022/03/15 02:17:36;;;;;;;9.32;3.70;;;4.20;99.90;;;;;;5134169;27;37530;-56
2022/03/15 02:20:07;;;;;;;7.55;3.58;;;4.30;99.90;;;;;;5136675;27;36558;-50
2022/03/15 02:22:35;;;;;;;8.45;3.92;;;4.30;99.90;;;;;;5136427;27;36365;-50
2022/03/15 02:25:02;;;;;;;9.25;4.38;;;4.40;99.90;;;;;;5136309;27;36633;-49
2022/03/15 02:27:29;;;;;;;11.02;3.70;;;4.50;99.90;;;;;;5136685;27;37070;-51
2022/03/15 02:29:57;;;;;;;8.82;3.80;;;4.60;99.90;;;;;;5136714;27;36324;-51
2022/03/15 02:32:24;;;;;;;8.15;4.00;;;4.60;99.90;;;;;;5137363;27;36954;-51
2022/03/15 02:34:51;;;;;;;11.48;3.72;;;4.60;99.90;;;;;;5136230;27;38830;-49
2022/03/15 02:37:20;;;;;;;8.20;3.70;;;4.70;99.90;;;;;;5135524;27;38108;-51
2022/03/15 02:39:47;;;;;;;7.55;3.80;;;4.70;99.90;;;;;;5136975;27;35286;-49
2022/03/15 02:42:14;;;;;;;10.80;4.43;;;4.70;99.90;;;;;;5133629;27;39317;-50
2022/03/15 02:44:42;;;;;;;7.82;4.65;;;4.80;99.90;;;;;;5135725;27;36482;-50
2022/03/15 02:47:09;;;;;;;10.43;4.25;;;4.80;99.90;;;;;;5136350;27;37189;-51
2022/03/15 02:49:36;;;;;;;10.90;4.32;;;4.80;99.90;;;;;;5135892;27;36620;-56
2022/03/15 02:52:04;;;;;;;10.00;4.35;;;4.90;99.90;;;;;;5134418;27;36192;-57
2022/03/15 02:54:33;;;;;;;10.82;4.85;;;5.00;99.90;;;;;;5134166;27;38726;-56
2022/03/15 02:57:01;;;;;;;13.65;5.93;;;5.00;99.90;;;;;;5134514;27;38333;-57
2022/03/15 02:59:28;;;;;;;10.95;5.63;;;5.10;99.90;;;;;;5136645;27;37402;-57
2022/03/15 03:01:56;;;;;;;15.98;5.68;;;5.10;99.90;;;;;;5135258;27;37935;-56
2022/03/15 03:04:23;;;;;;;12.07;6.13;;;5.10;99.90;;;;;;5136104;27;38995;-57
2022/03/15 03:06:53;;;;;;;11.75;6.15;;;5.10;99.90;;;;;;5135549;27;37564;-56
2022/03/15 03:09:20;;;;;;;14.55;6.00;;;5.10;99.90;;;;;;5136787;27;35366;-57
2022/03/15 03:11:48;;;;;;;11.35;5.40;;;5.20;99.90;;;;;;5136540;27;38752;-57
2022/03/15 03:14:21;;;;;;;11.95;6.00;;;5.20;99.90;;;;;;5136377;27;38131;-56
2022/03/15 03:16:48;;;;;;;16.10;6.75;;;5.20;99.90;;;;;;5137542;27;37374;-57
2022/03/15 03:19:16;;;;;;;15.02;7.00;;;5.30;99.90;;;;;;5138420;27;36958;-56
2022/03/15 03:21:43;;;;;;;17.58;6.47;;;5.30;99.90;;;;;;5139001;27;38174;-56
2022/03/15 03:24:12;;;;;;;13.35;6.70;;;5.40;99.90;;;;;;5135593;27;37441;-56
2022/03/15 03:26:40;;;;;;;13.75;6.72;;;5.40;99.90;;;;;;5139847;27;39662;-57
2022/03/15 03:29:10;;;;;;;14.73;6.68;;;5.50;99.90;;;;;;5138789;27;38866;-51
2022/03/15 03:31:38;;;;;;;16.60;7.22;;;5.50;99.90;;;;;;5139652;27;37625;-52
2022/03/15 03:34:06;;;;;;;19.02;7.65;;;5.60;99.90;;;;;;5140538;27;37628;-51
2022/03/15 03:36:36;;;;;;;16.85;7.38;;;5.60;99.90;;;;;;5140376;27;36208;-52
2022/03/15 03:39:03;;;;;;;11.30;6.75;;;5.60;99.90;;;;;;5140337;27;37606;-47
2022/03/15 03:41:31;;;;;;;12.88;6.80;;;5.60;99.90;;;;;;5138589;27;37349;-56
2022/03/15 03:43:59;;;;;;;16.30;6.60;;;5.70;99.90;;;;;;5139881;27;38568;-56
2022/03/15 03:46:28;;;;;;;16.63;7.35;;;5.70;99.90;;;;;;5140049;27;37366;-51
2022/03/15 03:48:56;;;;;;;14.10;6.72;;;5.70;99.90;;;;;;5137759;27;37003;-51
2022/03/15 03:51:23;;;;;;;14.30;7.95;;;5.60;99.90;;;;;;5139042;27;37570;-49
2022/03/15 03:53:50;;;;;;;16.17;7.53;;;5.80;99.90;;;;;;5139538;27;38597;-51
2022/03/15 03:56:18;;;;;;;15.68;7.95;;;5.90;99.90;;;;;;5139927;27;37486;-50
2022/03/15 03:58:45;;;;;;;16.05;8.15;;;6.00;99.90;;;;;;5140339;27;36372;-52
2022/03/15 04:01:13;;;;;;;15.43;8.38;;;6.10;99.90;;;;;;5139219;27;37418;-56
2022/03/15 04:03:42;;;;;;;18.00;8.48;;;6.20;99.90;;;;;;5138105;27;37303;-56
2022/03/15 04:06:11;;;;;;;18.60;8.98;;;6.20;99.90;;;;;;5138423;27;36107;-51
2022/03/15 04:08:38;;;;;;;19.25;8.82;;;6.20;99.90;;;;;;5137732;27;36578;-51
2022/03/15 04:11:06;;;;;;;17.80;8.60;;;6.20;99.90;;;;;;5139447;27;37836;-51
2022/03/15 04:13:33;;;;;;;17.38;8.00;;;6.20;99.90;;;;;;5139738;27;37457;-50
2022/03/15 04:16:00;;;;;;;16.73;8.73;;;6.20;99.90;;;;;;5140097;27;37481;-51
2022/03/15 04:18:28;;;;;;;16.95;8.40;;;6.20;99.90;;;;;;5138645;27;37744;-47
2022/03/15 04:20:57;;;;;;;18.65;9.85;;;6.20;99.90;;;;;;5138877;27;37806;-51
2022/03/15 04:23:24;;;;;;;18.33;9.82;;;6.20;99.90;;;;;;5138762;27;37801;-51
2022/03/15 04:25:52;;;;;;;19.33;9.02;;;6.10;99.90;;;;;;5138968;27;38007;-49
2022/03/15 04:28:19;;;;;;;16.92;8.35;;;6.20;99.90;;;;;;5139313;27;35953;-50
2022/03/15 04:30:46;;;;;;;23.92;9.35;;;6.20;99.90;;;;;;5139081;27;39967;-50
2022/03/15 04:33:14;;;;;;;16.48;8.98;;;6.30;99.90;;;;;;5137643;27;38173;-48
2022/03/15 04:35:42;;;;;;;17.92;9.20;;;6.30;99.90;;;;;;5138783;27;37488;-49
2022/03/15 04:38:10;;;;;;;17.15;9.80;;;6.30;99.90;;;;;;5139315;27;36430;-51
2022/03/15 04:40:38;;;;;;;19.08;9.20;;;6.30;99.90;;;;;;5138271;27;36933;-52
2022/03/15 04:43:06;;;;;;;18.15;9.65;;;6.30;99.90;;;;;;5138613;27;36455;-52
2022/03/15 04:45:33;;;;;;;15.77;9.07;;;6.30;99.90;;;;;;5138158;27;36334;-51
2022/03/15 04:48:01;;;;;;;21.30;9.45;;;6.40;99.90;;;;;;5139835;27;36923;-50
2022/03/15 04:50:30;;;;;;;17.95;10.68;;;6.40;99.90;;;;;;5139018;27;38042;-49
2022/03/15 04:52:57;;;;;;;18.42;9.27;;;6.40;99.90;;;;;;5138678;27;37696;-51
2022/03/15 04:55:26;;;;;;;24.35;10.18;;;6.50;99.90;;;;;;5138947;27;38213;-50
2022/03/15 04:57:53;;;;;;;28.17;11.50;;;6.50;99.90;;;;;;5137009;27;37101;-50
2022/03/15 05:00:21;;;;;;;17.70;9.77;;;6.50;99.90;;;;;;5137129;27;36256;-49
2022/03/15 05:02:48;;;;;;;16.80;9.70;;;6.50;99.90;;;;;;5136523;27;38449;-51
2022/03/15 05:05:15;;;;;;;19.63;10.02;;;6.50;99.90;;;;;;5137174;27;37214;-50
2022/03/15 05:07:43;;;;;;;23.83;10.65;;;6.50;99.90;;;;;;5138124;27;35785;-50
2022/03/15 05:12:56;;;;;;;21.70;10.57;;;6.50;99.90;;;;;;5139227;27;38541;-49
2022/03/15 05:15:24;;;;;;;20.20;10.98;;;6.50;99.90;;;;;;5138050;27;38776;-50
2022/03/15 05:17:51;;;;;;;21.67;11.30;;;6.50;99.90;;;;;;5137989;27;36838;-52
2022/03/15 05:20:19;;;;;;;16.42;10.35;;;6.60;99.90;;;;;;5138376;27;37281;-51
2022/03/15 05:22:46;;;;;;;19.58;9.43;;;6.60;99.90;;;;;;5135472;27;37708;-50
2022/03/15 05:25:14;;;;;;;20.88;10.20;;;6.70;99.90;;;;;;5137899;27;37613;-51
2022/03/15 05:27:42;;;;;;;20.52;9.85;;;6.80;99.90;;;;;;5138293;27;37394;-51
2022/03/15 05:30:12;;;;;;;16.90;10.05;;;6.80;99.90;;;;;;5137746;27;37515;-51
2022/03/15 05:32:40;;;;;;;19.63;10.02;;;6.90;99.90;;;;;;5137647;27;37212;-51
2022/03/15 05:35:08;;;;;;;21.38;11.50;;;6.90;99.90;;;;;;5137433;27;39278;-51
2022/03/15 05:37:35;;;;;;;24.60;11.15;;;6.90;99.90;;;;;;5137296;27;36908;-51
2022/03/15 05:40:03;;;;;;;20.27;10.30;;;6.90;99.90;;;;;;5136719;27;37441;-50
2022/03/15 05:42:30;;;;;;;23.48;10.65;;;7.00;99.90;;;;;;5137697;27;37847;-51
2022/03/15 05:44:57;;;;;;;18.55;10.38;;;7.00;99.90;;;;;;5137831;27;38591;-49
2022/03/15 05:47:26;;;;;;;22.52;11.20;;;7.10;99.90;;;;;;5136890;27;37610;-50
2022/03/15 05:49:53;;;;;;;20.50;11.68;;;7.10;99.90;;;;;;5137810;27;36381;-50
2022/03/15 05:52:21;;;;;;;24.67;11.18;;;7.10;99.90;;;;;;5137570;27;37785;-50
2022/03/15 05:54:48;;;;;;;21.98;10.98;;;7.10;99.90;;;;;;5137197;27;38153;-51
2022/03/15 05:57:15;;;;;;;19.98;10.93;;;7.10;99.90;;;;;;5137353;27;37492;-48
2022/03/15 05:59:43;;;;;;;23.75;11.93;;;7.10;99.90;;;;;;5137523;27;38006;-50
2022/03/15 06:02:10;;;;;;;20.48;11.23;;;7.20;99.90;;;;;;5136173;27;38868;-49
2022/03/15 06:04:39;;;;;;;24.45;11.63;;;7.10;99.90;;;;;;5137213;27;37876;-50
2022/03/15 06:07:06;;;;;;;26.67;12.73;;;7.20;99.90;;;;;;5136600;27;38001;-49
2022/03/15 06:09:33;;;;;;;23.67;11.60;;;7.20;99.90;;;;;;5137017;27;37831;-51
2022/03/15 06:12:02;;;;;;;20.45;11.20;;;7.20;99.90;;;;;;5135871;27;36496;-51
2022/03/15 06:14:29;;;;;;;23.50;12.52;;;7.20;99.90;;;;;;5137251;27;36357;-49
2022/03/15 06:16:56;;;;;;;21.98;11.77;;;7.20;99.90;;;;;;5135304;27;39051;-56
2022/03/15 06:19:25;;;;;;;26.85;11.98;;;7.20;99.90;;;;;;5135517;27;38604;-56
2022/03/15 06:21:54;;;;;;;25.00;11.18;;;7.20;99.90;;;;;;5135552;27;37712;-51
2022/03/15 06:24:23;;;;;;;20.45;11.32;;;7.20;99.90;;;;;;5134858;27;38484;-57
2022/03/15 06:26:51;;;;;;;18.35;10.85;;;7.20;99.90;;;;;;5136880;27;37123;-56
2022/03/15 06:29:19;;;;;;;22.00;10.85;;;7.20;99.90;;;;;;5136218;27;37492;-56
2022/03/15 06:31:46;;;;;;;18.88;10.48;;;7.20;99.90;;;;;;5136001;27;38784;-51
2022/03/15 06:34:13;;;;;;;19.20;11.25;;;7.10;99.90;;;;;;5136690;27;38760;-49
2022/03/15 06:36:41;;;;;;;22.75;10.55;;;7.20;99.90;;;;;;5136693;27;36512;-50
2022/03/15 06:39:10;;;;;;;19.60;12.23;;;7.20;99.90;;;;;;5138247;27;37438;-52
2022/03/15 06:41:39;;;;;;;21.35;10.63;;;7.20;99.90;;;;;;5134893;27;36557;-56
2022/03/15 06:44:07;;;;;;;24.60;13.30;;;7.20;99.90;;;;;;5136644;27;38139;-56
2022/03/15 06:46:34;;;;;;;25.85;11.55;;;7.20;99.90;;;;;;5135755;27;36587;-56
2022/03/15 06:49:02;;;;;;;24.27;13.63;;;7.20;99.90;;;;;;5136690;27;40128;-47
2022/03/15 06:51:29;;;;;;;31.75;14.38;;;7.30;99.90;;;;;;5137029;27;37716;-50
2022/03/15 06:53:56;;;;;;;22.05;11.05;;;7.30;99.90;;;;;;5139508;27;36257;-52
2022/03/15 06:56:25;;;;;;;21.17;12.13;;;7.40;99.90;;;;;;5139723;27;36665;-52
2022/03/15 06:58:52;;;;;;;20.45;11.32;;;7.40;99.90;;;;;;5140548;27;39555;-49
2022/03/15 07:01:20;;;;;;;24.85;12.82;;;7.40;99.90;;;;;;5139997;27;38623;-51
2022/03/15 07:03:47;;;;;;;22.42;11.70;;;7.40;99.90;;;;;;5137607;27;39038;-52
2022/03/15 07:06:15;;;;;;;19.80;11.65;;;7.50;99.90;;;;;;5138939;27;37037;-50
2022/03/15 07:08:42;;;;;;;22.70;12.50;;;7.50;99.90;;;;;;5138123;27;37342;-50
2022/03/15 07:11:09;;;;;;;23.83;13.07;;;7.50;99.90;;;;;;5138585;27;36375;-51
2022/03/15 07:13:38;;;;;;;24.25;12.82;;;7.50;99.90;;;;;;5138770;27;39051;-51
2022/03/15 07:16:06;;;;;;;23.63;13.07;;;7.50;99.90;;;;;;5138924;27;37331;-50
2022/03/15 07:18:33;;;;;;;26.33;13.70;;;7.50;99.90;;;;;;5139612;27;37428;-56
2022/03/15 07:21:01;;;;;;;27.10;14.05;;;7.50;99.90;;;;;;5138927;27;36353;-57
2022/03/15 07:23:28;;;;;;;21.60;13.10;;;7.50;99.90;;;;;;5139916;27;40024;-57
2022/03/15 07:25:55;;;;;;;24.52;13.30;;;7.50;99.90;;;;;;5140700;27;36774;-56
2022/03/15 07:28:23;;;;;;;21.38;12.30;;;7.60;99.90;;;;;;5140640;27;36173;-57
2022/03/15 07:30:51;;;;;;;26.65;14.27;;;7.60;99.90;;;;;;5141078;27;37221;-57
2022/03/15 07:33:19;;;;;;;23.58;14.30;;;7.70;99.90;;;;;;5141527;27;38156;-57
2022/03/15 07:35:46;;;;;;;27.95;14.80;;;7.70;99.90;;;;;;5140686;27;37897;-57
2022/03/15 07:38:17;;;;;;;21.95;14.50;;;7.70;99.90;;;;;;5136777;27;37210;-57
2022/03/15 07:40:44;;;;;;;29.92;15.50;;;7.80;99.90;;;;;;5138895;27;37711;-57
2022/03/15 07:43:12;;;;;;;27.08;14.60;;;7.80;99.90;;;;;;5139570;27;37398;-57
2022/03/15 07:45:39;;;;;;;32.22;16.67;;;7.80;99.90;;;;;;5140373;27;36578;-57
2022/03/15 07:48:08;;;;;;;32.58;17.33;;;7.80;99.90;;;;;;5139303;27;37715;-51
2022/03/15 07:50:36;;;;;;;27.35;16.98;;;7.80;99.90;;;;;;5139095;27;38267;-48
2022/03/15 07:53:03;;;;;;;29.13;17.90;;;7.90;99.90;;;;;;5140241;27;38374;-50
2022/03/15 07:55:31;;;;;;;28.50;16.80;;;7.90;99.90;;;;;;5139945;27;37380;-49
2022/03/15 07:57:58;;;;;;;30.10;16.88;;;8.00;99.90;;;;;;5140078;27;37307;-48
2022/03/15 08:00:26;;;;;;;27.30;18.35;;;7.90;99.90;;;;;;5139744;27;38204;-51
2022/03/15 08:02:53;;;;;;;30.73;17.08;;;8.00;99.90;;;;;;5139949;27;36978;-51
2022/03/15 08:05:22;;;;;;;30.55;18.35;;;8.00;99.90;;;;;;5141599;27;35547;-48
2022/03/15 08:07:50;;;;;;;34.25;18.08;;;8.10;99.90;;;;;;5141329;27;38280;-49
2022/03/15 08:10:18;;;;;;;34.22;19.02;;;8.10;99.90;;;;;;5140685;27;37888;-49
2022/03/15 08:12:45;;;;;;;30.90;19.38;;;8.10;99.90;;;;;;5142891;27;37728;-56
2022/03/15 08:15:12;;;;;;;30.13;17.98;;;8.20;99.90;;;;;;5141552;27;37796;-57
2022/03/15 08:17:41;;;;;;;32.50;18.13;;;8.20;99.90;;;;;;5142058;27;37486;-57
2022/03/15 08:20:12;;;;;;;33.47;19.80;;;8.30;99.90;;;;;;5140137;27;36330;-57
2022/03/15 08:22:41;;;;;;;33.08;18.88;;;8.30;99.90;;;;;;5139909;27;37177;-57
2022/03/15 08:25:09;;;;;;;36.58;20.52;;;8.30;99.90;;;;;;5139927;27;37836;-57
2022/03/15 08:27:36;;;;;;;32.78;19.10;;;8.40;99.90;;;;;;5138192;27;38191;-57
2022/03/15 08:30:05;;;;;;;34.38;20.08;;;8.40;99.90;;;;;;5139104;27;38537;-57
2022/03/15 08:32:32;;;;;;;31.58;18.88;;;8.40;99.90;;;;;;5138444;27;38033;-57
2022/03/15 08:35:00;;;;;;;30.90;19.35;;;8.50;99.90;;;;;;5138887;27;35643;-57
2022/03/15 08:37:27;;;;;;;35.72;20.85;;;8.50;99.90;;;;;;5139459;27;37446;-57
2022/03/15 08:39:56;;;;;;;35.15;19.15;;;8.50;99.90;;;;;;5140193;27;39843;-57
2022/03/15 08:42:23;;;;;;;31.77;18.63;;;8.60;99.90;;;;;;5140387;27;37890;-57
2022/03/15 08:44:51;;;;;;;36.50;20.92;;;8.60;99.90;;;;;;5141749;27;35543;-57
2022/03/15 08:47:18;;;;;;;28.52;19.08;;;8.70;99.90;;;;;;5142289;27;37721;-57
2022/03/15 08:49:46;;;;;;;32.70;20.17;;;8.70;99.90;;;;;;5140943;27;38262;-57
2022/03/15 08:52:13;;;;;;;33.17;19.63;;;8.70;99.90;;;;;;5142238;27;36204;-57
2022/03/15 08:54:41;;;;;;;34.00;19.48;;;8.80;99.90;;;;;;5140889;27;36320;-57
2022/03/15 08:57:10;;;;;;;34.80;19.98;;;8.80;99.90;;;;;;5141016;27;38415;-57
2022/03/15 08:59:37;;;;;;;39.25;21.80;;;8.90;99.90;;;;;;5140334;27;37724;-57
2022/03/15 09:02:05;;;;;;;32.45;20.50;;;8.90;99.90;;;;;;5140393;27;37259;-57
2022/03/15 09:04:32;;;;;;;33.28;21.20;;;8.90;99.90;;;;;;5141060;27;35816;-58
2022/03/15 09:07:00;;;;;;;35.53;21.50;;;9.00;99.90;;;;;;5141629;27;38695;-54
2022/03/15 09:09:27;;;;;;;34.00;21.02;;;9.10;99.90;;;;;;5140847;27;37575;-57
2022/03/15 09:11:55;;;;;;;31.75;19.58;;;9.20;99.90;;;;;;5142073;27;36133;-58
2022/03/15 09:14:24;;;;;;;35.90;20.48;;;9.20;99.90;;;;;;5142213;27;36873;-57
2022/03/15 09:16:51;;;;;;;32.33;20.55;;;9.30;99.90;;;;;;5141123;27;37527;-57
2022/03/15 09:19:19;;;;;;;42.67;20.60;;;9.30;99.90;;;;;;5139457;27;37506;-57
2022/03/15 09:21:47;;;;;;;30.65;20.45;;;9.40;99.90;;;;;;5137997;27;37072;-57
2022/03/15 09:24:14;;;;;;;35.10;20.67;;;9.40;99.90;;;;;;5138265;27;35614;-58
2022/03/15 09:26:42;;;;;;;28.92;17.58;;;9.50;99.90;;;;;;5138999;27;38647;-57
2022/03/15 09:29:10;;;;;;;32.67;19.00;;;9.50;99.90;;;;;;5139215;27;40680;-57
2022/03/15 09:31:40;;;;;;;35.63;19.35;;;9.60;99.90;;;;;;5140509;27;37624;-57
2022/03/15 09:34:07;;;;;;;32.08;20.25;;;9.60;99.90;;;;;;5140281;27;36933;-57
2022/03/15 09:36:35;;;;;;;34.58;19.48;;;9.60;99.90;;;;;;5139818;27;36506;-57
2022/03/15 09:39:06;;;;;;;30.02;17.85;;;9.60;99.90;;;;;;5140265;27;36298;-57
2022/03/15 09:41:38;;;;;;;34.63;20.95;;;9.60;99.90;;;;;;5135057;27;36161;-57
2022/03/15 09:44:08;;;;;;;27.55;18.98;;;9.60;99.90;;;;;;5137246;27;35872;-57
2022/03/15 09:46:42;;;;;;;33.08;18.77;;;9.70;99.90;;;;;;5136037;27;37558;-57
2022/03/15 09:49:10;;;;;;;31.35;19.00;;;9.70;99.90;;;;;;5137484;27;38609;-55
2022/03/15 09:51:38;;;;;;;30.17;19.00;;;9.70;99.90;;;;;;5134075;27;38293;-55
2022/03/15 09:54:07;;;;;;;34.92;19.20;;;9.80;99.90;;;;;;5133959;27;36995;-58
2022/03/15 09:56:38;;;;;;;29.10;19.30;;;9.80;99.90;;;;;;5135612;27;37507;-55
2022/03/15 09:59:09;;;;;;;32.88;19.77;;;9.90;99.90;;;;;;5133786;27;36390;-57
2022/03/15 10:01:39;;;;;;;26.83;18.45;;;10.00;99.50;;;;;;5133872;27;36477;-57
2022/03/15 10:04:08;;;;;;;26.95;18.65;;;10.10;99.20;;;;;;5136160;27;36775;-56
2022/03/15 10:06:36;;;;;;;29.23;18.02;;;10.20;99.00;;;;;;5134911;27;37577;-49
2022/03/15 10:09:04;;;;;;;24.55;16.38;;;10.20;98.70;;;;;;5134900;27;40085;-50
2022/03/15 10:11:31;;;;;;;34.15;17.20;;;10.30;98.20;;;;;;5132077;27;37702;-51
2022/03/15 10:13:59;;;;;;;27.08;17.80;;;10.30;97.90;;;;;;5132597;27;36322;-48
2022/03/15 10:16:31;;;;;;;29.75;19.15;;;10.30;97.80;;;;;;5136346;27;40100;-50
2022/03/15 10:18:59;;;;;;;26.60;18.27;;;10.40;97.70;;;;;;5136630;27;37948;-51
2022/03/15 10:21:39;;;;;;;24.35;17.42;;;10.40;97.70;;;;;;5137164;27;37490;-48
2022/03/15 10:24:08;;;;;;;25.80;16.75;;;10.40;98.10;;;;;;5137205;27;37400;-48
2022/03/15 10:26:38;;;;;;;24.73;16.95;;;10.50;97.70;;;;;;5136913;27;39149;-50
2022/03/15 10:29:06;;;;;;;28.45;18.25;;;10.50;97.60;;;;;;5139735;27;36474;-48
2022/03/15 10:31:34;;;;;;;25.48;17.17;;;10.60;97.50;;;;;;5137812;27;38449;-51
2022/03/15 10:34:02;;;;;;;27.45;16.77;;;10.60;97.40;;;;;;5140188;27;36743;-50
2022/03/15 10:36:39;;;;;;;29.27;17.30;;;10.60;97.20;;;;;;5140052;27;37587;-50
2022/03/15 10:39:10;;;;;;;25.85;17.55;;;10.70;97.00;;;;;;5141090;27;37972;-50
2022/03/15 10:41:45;;;;;;;27.55;16.73;;;10.70;97.00;;;;;;5140441;27;37699;-50
2022/03/15 10:44:20;;;;;;;26.23;16.83;;;10.70;97.30;;;;;;5141423;27;36922;-51
2022/03/15 10:47:02;;;;;;;30.60;17.05;;;10.70;97.30;;;;;;5140733;27;39111;-50
2022/03/15 10:49:31;;;;;;;25.67;15.98;;;10.70;96.80;;;;;;5140804;27;36486;-47
2022/03/15 10:52:00;;;;;;;24.88;16.05;;;10.60;97.10;;;;;;5140740;27;36037;-51
2022/03/15 10:54:28;;;;;;;30.98;17.25;;;10.60;97.20;;;;;;5139198;27;36633;-52
2022/03/15 10:56:58;;;;;;;26.65;17.35;;;10.50;97.30;;;;;;5140919;27;37534;-50
2022/03/15 10:59:26;;;;;;;31.70;17.77;;;10.50;97.60;;;;;;5140681;27;37930;-48
2022/03/15 11:01:54;;;;;;;23.55;17.05;;;10.50;97.60;;;;;;5141739;27;38181;-52
2022/03/15 11:04:21;;;;;;;26.08;16.50;;;10.50;97.80;;;;;;5139727;27;37262;-50
2022/03/15 11:06:50;;;;;;;28.77;16.33;;;10.40;98.10;;;;;;5141186;27;36230;-49
2022/03/15 11:09:22;;;;;;;27.25;16.98;;;10.40;98.00;;;;;;5140231;27;36235;-50
2022/03/15 11:11:56;;;;;;;23.80;16.65;;;10.40;98.20;;;;;;5140122;27;37524;-51
2022/03/15 11:14:46;;;;;;;29.38;17.90;;;10.40;98.60;;;;;;5140483;27;35677;-51
2022/03/15 11:17:15;;;;;;;25.30;17.13;;;10.40;98.80;;;;;;5139945;27;38844;-49
2022/03/15 11:19:46;;;;;;;27.02;16.88;;;10.40;99.30;;;;;;5136867;27;38693;-48
2022/03/15 11:22:15;;;;;;;32.28;17.58;;;10.40;99.60;;;;;;5140328;27;36143;-51
2022/03/15 11:24:49;;;;;;;27.95;16.48;;;10.30;99.90;;;;;;5139728;27;37072;-51
2022/03/15 11:27:17;;;;;;;28.40;15.43;;;10.30;99.90;;;;;;5140152;27;37744;-51
2022/03/15 11:29:46;;;;;;;26.30;14.05;;;10.20;99.90;;;;;;5138825;27;36568;-48
2022/03/15 11:32:14;;;;;;;20.25;13.05;;;10.20;99.90;;;;;;5138312;27;36325;-51
2022/03/15 11:34:42;;;;;;;21.45;12.02;;;10.20;99.90;;;;;;5138096;27;36648;-47
2022/03/15 11:37:12;;;;;;;17.42;8.90;;;10.10;99.90;;;;;;5140084;27;37779;-50
2022/03/15 11:39:40;;;;;;;18.58;9.73;;;10.10;99.90;;;;;;5138264;27;38373;-48
2022/03/15 11:42:12;;;;;;;17.30;10.38;;;10.00;99.90;;;;;;5140467;27;36233;-52
2022/03/15 11:44:54;;;;;;;21.45;9.27;;;9.90;99.90;;;;;;5140423;27;37279;-50
2022/03/15 11:47:36;;;;;;;21.48;9.23;;;9.90;99.90;;;;;;5139945;27;37967;-49
2022/03/15 11:50:12;;;;;;;12.50;6.10;;;9.80;99.90;;;;;;5138397;27;38697;-48
2022/03/15 11:52:54;;;;;;;20.40;6.20;;;9.80;99.90;;;;;;5139534;27;36925;-47
2022/03/15 11:55:29;;;;;;;11.73;5.40;;;9.70;99.90;;;;;;5139903;27;37645;-49
2022/03/15 11:58:03;;;;;;;19.38;8.35;;;9.60;99.90;;;;;;5139591;27;38093;-50
2022/03/15 12:00:33;;;;;;;22.02;11.07;;;9.60;99.90;;;;;;5139761;27;38302;-51
2022/03/15 12:03:06;;;;;;;21.45;12.65;;;9.60;99.90;;;;;;5139569;27;37744;-50
2022/03/15 12:05:42;;;;;;;26.15;12.65;;;9.50;99.90;;;;;;5138960;27;35587;-51
2022/03/15 12:08:13;;;;;;;20.73;11.75;;;9.50;99.90;;;;;;5139153;27;37583;-48
2022/03/15 12:10:46;;;;;;;23.13;14.45;;;9.60;99.90;;;;;;5137448;27;36579;-47
2022/03/15 12:13:15;;;;;;;25.80;14.18;;;9.70;99.90;;;;;;5139085;27;36312;-50
2022/03/15 12:15:48;;;;;;;24.73;14.02;;;9.80;99.90;;;;;;5139022;27;37008;-48
2022/03/15 12:18:27;;;;;;;26.40;14.82;;;9.90;99.90;;;;;;5139446;27;38274;-48
2022/03/15 12:21:03;;;;;;;25.65;15.43;;;10.00;99.90;;;;;;5139077;27;38452;-50
2022/03/15 12:23:40;;;;;;;24.48;15.80;;;10.00;99.90;;;;;;5138390;27;38329;-48
2022/03/15 12:26:18;;;;;;;23.90;14.48;;;10.20;99.90;;;;;;5137408;27;36794;-50
2022/03/15 12:28:57;;;;;;;24.00;16.15;;;10.20;99.90;;;;;;5138156;27;38473;-50
2022/03/15 12:31:35;;;;;;;24.02;15.77;;;10.30;99.90;;;;;;5137339;27;37741;-56
2022/03/15 12:34:03;;;;;;;24.60;15.18;;;10.50;99.90;;;;;;5137999;27;36171;-56
2022/03/15 12:36:38;;;;;;;29.40;14.75;;;10.50;99.90;;;;;;5139130;27;35545;-57
2022/03/15 12:39:13;;;;;;;27.33;16.35;;;10.60;99.90;;;;;;5138441;27;37378;-56
2022/03/15 12:41:41;;;;;;;23.08;14.38;;;10.60;99.90;;;;;;5136539;27;37875;-56
2022/03/15 12:44:10;;;;;;;25.70;16.55;;;10.80;99.90;;;;;;5139182;27;38087;-56
2022/03/15 12:46:39;;;;;;;23.88;14.35;;;10.80;99.90;;;;;;5136930;27;37869;-57
2022/03/15 12:49:08;;;;;;;20.60;14.00;;;10.90;99.90;;;;;;5137836;27;38207;-57
2022/03/15 12:51:37;;;;;;;19.58;11.07;;;11.00;99.90;;;;;;5137572;27;37993;-56